Time;durP1;ratioP1;P1;durP2;ratioP2;P2;SDS_P1;SDS_P2;PMS_P1;PMS_P2;Temp;Humidity;BMP_temperature;BMP_pressure;BME280_temperature;BME280_humidity;BME280_pressure;Samples;Min_cycle;Max_cycle;Signal;HPM_P1;HPM_P2
2022/05/07 00:01:04;;;;;;;0.57;0.20;;;20.80;79.50;;;;;;4958880;28;20173;-73
2022/05/07 00:03:31;;;;;;;2.50;0.32;;;20.90;78.70;;;;;;4962831;28;20062;-71
2022/05/07 00:06:00;;;;;;;3.25;0.30;;;20.80;82.10;;;;;;4970107;28;20462;-71
2022/05/07 00:08:27;;;;;;;0.65;0.22;;;20.90;78.80;;;;;;4968647;28;20046;-72
2022/05/07 00:10:55;;;;;;;5.47;0.25;;;21.10;79.30;;;;;;4972895;28;20030;-71
2022/05/07 00:13:22;;;;;;;0.75;0.25;;;21.10;78.40;;;;;;4976245;28;20026;-71
2022/05/07 00:18:35;;;;;;;0.40;0.20;;;21.50;77.40;;;;;;4962825;28;20140;-71
2022/05/07 00:21:03;;;;;;;0.38;0.20;;;21.90;76.80;;;;;;4974967;28;20350;-70
2022/05/07 00:23:30;;;;;;;1.02;0.20;;;22.20;79.30;;;;;;4977460;28;20031;-72
2022/05/07 00:25:58;;;;;;;3.47;0.20;;;22.40;75.80;;;;;;4958639;28;20046;-73
2022/05/07 00:28:25;;;;;;;1.23;0.38;;;22.50;76.50;;;;;;4974693;28;20035;-71
2022/05/07 00:30:53;;;;;;;0.65;0.20;;;22.50;78.40;;;;;;4974632;28;20026;-73
2022/05/07 00:33:21;;;;;;;0.20;0.08;;;22.70;76.10;;;;;;4959128;28;20560;-73
2022/05/07 00:35:48;;;;;;;1.10;0.30;;;22.40;76.50;;;;;;4976395;28;20081;-72
2022/05/07 00:38:16;;;;;;;0.90;0.20;;;22.00;78.00;;;;;;4976435;28;20037;-72
2022/05/07 00:40:43;;;;;;;0.63;0.10;;;21.70;77.30;;;;;;4974022;28;20173;-71
2022/05/07 00:43:15;;;;;;;0.70;0.40;;;22.70;80.20;;;;;;4975048;28;20054;-70
2022/05/07 00:45:45;;;;;;;0.63;0.13;;;23.50;74.50;;;;;;4975101;28;20035;-70
2022/05/07 00:48:16;;;;;;;0.38;0.20;;;23.70;74.40;;;;;;4974469;28;20034;-72
2022/05/07 00:53:31;;;;;;;0.13;0.13;;;23.80;74.60;;;;;;4977367;28;20098;-72
2022/05/07 00:55:59;;;;;;;1.10;0.35;;;24.00;75.10;;;;;;4975209;28;20033;-71
2022/05/07 00:58:30;;;;;;;1.15;0.15;;;24.00;73.20;;;;;;4974339;28;20051;-71
2022/05/07 01:00:58;;;;;;;0.43;0.20;;;23.40;73.60;;;;;;4970399;28;20078;-71
2022/05/07 01:03:26;;;;;;;0.65;0.25;;;23.20;75.70;;;;;;4975427;28;20069;-72
2022/05/07 01:05:54;;;;;;;0.43;0.40;;;23.70;76.00;;;;;;4973754;28;20485;-72
2022/05/07 01:08:22;;;;;;;0.25;0.10;;;23.70;74.90;;;;;;4976144;28;20480;-74
2022/05/07 01:10:49;;;;;;;1.20;0.10;;;23.70;76.00;;;;;;4977486;28;20029;-73
2022/05/07 01:13:17;;;;;;;1.48;0.13;;;24.30;76.30;;;;;;4976126;28;20027;-72
2022/05/07 01:15:46;;;;;;;0.63;0.15;;;24.30;73.40;;;;;;4974489;28;20030;-71
2022/05/07 01:18:14;;;;;;;0.60;0.20;;;24.70;74.30;;;;;;4972033;28;20385;-72
2022/05/07 01:20:42;;;;;;;2.28;0.20;;;25.50;72.90;;;;;;4973759;28;20039;-73
2022/05/07 01:23:10;;;;;;;1.85;0.20;;;25.00;72.40;;;;;;4972341;28;20117;-72
2022/05/07 01:25:37;;;;;;;1.13;0.15;;;24.70;73.20;;;;;;4971020;28;20118;-71
2022/05/07 01:28:05;;;;;;;1.38;0.20;;;25.20;72.90;;;;;;4970582;28;20123;-72
2022/05/07 01:30:34;;;;;;;1.33;0.28;;;25.60;72.60;;;;;;4969123;28;20031;-72
2022/05/07 01:33:01;;;;;;;0.65;0.20;;;26.30;73.00;;;;;;4972029;28;20043;-72
2022/05/07 01:35:28;;;;;;;1.88;0.25;;;26.70;71.60;;;;;;4972038;28;20090;-71
2022/05/07 01:37:56;;;;;;;0.57;0.38;;;26.50;71.40;;;;;;4972621;28;20030;-72
2022/05/07 01:40:23;;;;;;;1.25;0.20;;;27.00;71.50;;;;;;4967612;28;20095;-72
2022/05/07 01:42:50;;;;;;;1.85;0.50;;;26.40;70.50;;;;;;4967523;28;20027;-72
2022/05/07 01:45:18;;;;;;;0.40;0.10;;;26.40;68.70;;;;;;4967794;28;20038;-72
2022/05/07 01:50:30;;;;;;;0.85;0.10;;;26.20;70.70;;;;;;4966920;28;20037;-71
2022/05/07 01:52:57;;;;;;;1.27;0.20;;;26.00;69.60;;;;;;4967568;28;20065;-71
2022/05/07 01:55:25;;;;;;;0.88;0.28;;;25.70;70.20;;;;;;4974369;28;20029;-71
2022/05/07 01:57:52;;;;;;;1.05;0.45;;;25.20;71.20;;;;;;4968146;28;20050;-70
2022/05/07 02:00:20;;;;;;;2.63;0.40;;;24.70;71.20;;;;;;4969447;28;20071;-71
2022/05/07 02:02:47;;;;;;;0.25;0.13;;;24.30;72.30;;;;;;4965940;28;20051;-73
2022/05/07 02:05:15;;;;;;;1.65;1.05;;;24.10;71.80;;;;;;4966211;28;20046;-72
2022/05/07 02:07:42;;;;;;;0.32;0.10;;;23.40;73.30;;;;;;4967877;28;20418;-72
2022/05/07 02:10:10;;;;;;;1.65;0.20;;;23.50;73.50;;;;;;4969865;28;20039;-71
2022/05/07 02:12:37;;;;;;;0.47;0.15;;;23.70;72.50;;;;;;4971411;28;20362;-71
2022/05/07 02:15:06;;;;;;;0.50;0.10;;;24.20;73.10;;;;;;4971542;28;20464;-71
2022/05/07 02:17:34;;;;;;;0.10;0.10;;;25.30;73.10;;;;;;4968160;28;20042;-72
2022/05/07 02:20:03;;;;;;;0.20;0.10;;;25.80;73.50;;;;;;4969117;28;20026;-70
2022/05/07 02:22:31;;;;;;;0.95;0.30;;;26.10;71.70;;;;;;4972267;28;20039;-72
2022/05/07 02:24:59;;;;;;;0.55;0.10;;;26.30;71.50;;;;;;4975196;28;20486;-71
2022/05/07 02:27:26;;;;;;;0.85;0.38;;;26.10;72.40;;;;;;4972443;28;20089;-71
2022/05/07 02:29:54;;;;;;;0.40;0.20;;;25.70;69.50;;;;;;4971312;28;20030;-70
2022/05/07 02:32:21;;;;;;;6.80;1.30;;;25.50;71.60;;;;;;4972420;28;20034;-70
2022/05/07 02:34:48;;;;;;;0.43;0.10;;;25.40;71.90;;;;;;4970948;28;20066;-70
2022/05/07 02:37:16;;;;;;;4.95;0.40;;;24.90;71.60;;;;;;4966494;28;20019;-70
2022/05/07 02:39:43;;;;;;;6.82;1.15;;;24.80;71.70;;;;;;4971513;28;20034;-71
2022/05/07 02:44:56;;;;;;;0.67;0.23;;;24.30;72.60;;;;;;4968971;28;20041;-70
2022/05/07 02:47:23;;;;;;;1.98;0.68;;;24.50;72.90;;;;;;4966448;28;20047;-71
2022/05/07 02:49:51;;;;;;;7.25;1.90;;;24.20;77.90;;;;;;4972966;28;20062;-72
2022/05/07 02:52:18;;;;;;;2.15;0.30;;;24.00;84.20;;;;;;4971663;28;20027;-72
2022/05/07 02:54:45;;;;;;;3.60;0.57;;;23.20;84.80;;;;;;4971074;28;20417;-70
2022/05/07 02:57:13;;;;;;;0.65;0.10;;;23.10;88.40;;;;;;4968127;28;20433;-72
2022/05/07 02:59:41;;;;;;;2.10;0.10;;;23.30;81.30;;;;;;4971993;28;20474;-72
2022/05/07 03:02:10;;;;;;;0.95;0.47;;;23.20;84.40;;;;;;4984725;28;20512;-73
2022/05/07 03:04:37;;;;;;;6.93;0.77;;;23.00;76.70;;;;;;4992320;28;20092;-70
2022/05/07 03:07:04;;;;;;;0.50;0.20;;;22.70;80.10;;;;;;4987592;28;20396;-72
2022/05/07 03:09:32;;;;;;;0.20;0.10;;;22.40;78.40;;;;;;4990611;28;20034;-73
2022/05/07 03:11:59;;;;;;;0.17;0.00;;;22.70;80.90;;;;;;4987498;28;20132;-74
2022/05/07 03:14:27;;;;;;;1.40;0.30;;;22.40;77.10;;;;;;4990843;28;20049;-72
2022/05/07 03:16:54;;;;;;;1.00;0.57;;;21.90;79.50;;;;;;4987980;28;20934;-74
2022/05/07 03:19:22;;;;;;;0.47;0.10;;;21.50;78.10;;;;;;4990323;28;20062;-71
2022/05/07 03:21:49;;;;;;;0.30;0.13;;;21.30;79.50;;;;;;4981035;28;20223;-72
2022/05/07 03:24:16;;;;;;;0.35;0.10;;;21.50;83.50;;;;;;4988719;28;20026;-73
2022/05/07 03:26:44;;;;;;;1.20;0.00;;;21.60;81.50;;;;;;4987828;28;20049;-72
2022/05/07 03:29:11;;;;;;;2.28;0.00;;;21.90;82.90;;;;;;4989568;28;20037;-72
2022/05/07 03:31:39;;;;;;;0.47;0.40;;;21.90;80.00;;;;;;4986584;28;20129;-71
2022/05/07 03:34:08;;;;;;;0.35;0.20;;;22.10;80.90;;;;;;4991907;28;20030;-74
2022/05/07 03:36:36;;;;;;;1.05;0.10;;;22.20;81.90;;;;;;4990240;28;20030;-73
2022/05/07 03:39:03;;;;;;;1.45;0.03;;;22.10;80.60;;;;;;4991637;28;20614;-73
2022/05/07 03:41:31;;;;;;;0.45;0.00;;;22.10;78.30;;;;;;4987840;28;20030;-72
2022/05/07 03:43:58;;;;;;;0.57;0.10;;;21.90;77.90;;;;;;4991793;28;20492;-73
2022/05/07 03:46:25;;;;;;;0.28;0.20;;;21.40;79.30;;;;;;4987167;28;20436;-73
2022/05/07 03:48:53;;;;;;;0.10;0.00;;;21.10;76.10;;;;;;4990246;28;20109;-72
2022/05/07 03:51:20;;;;;;;0.57;0.00;;;20.80;77.50;;;;;;4986822;28;20396;-73
2022/05/07 03:53:47;;;;;;;2.25;0.00;;;20.50;76.90;;;;;;4991353;28;20128;-73
2022/05/07 03:56:15;;;;;;;0.00;0.00;;;20.20;76.40;;;;;;4988602;28;20388;-73
2022/05/07 03:58:42;;;;;;;0.52;0.00;;;20.20;77.20;;;;;;4988286;28;20038;-73
2022/05/07 04:01:10;;;;;;;1.75;0.00;;;20.30;75.10;;;;;;4970333;28;20051;-73
2022/05/07 04:03:37;;;;;;;0.10;0.00;;;20.40;73.90;;;;;;4971196;28;20477;-74
2022/05/07 04:06:05;;;;;;;0.10;0.00;;;20.50;74.30;;;;;;4970691;28;20485;-73
2022/05/07 04:08:32;;;;;;;1.75;0.00;;;20.30;74.60;;;;;;4969691;28;20443;-74
2022/05/07 04:11:01;;;;;;;0.00;0.00;;;20.10;75.10;;;;;;4970734;28;20389;-74
2022/05/07 04:13:29;;;;;;;0.05;0.05;;;20.00;75.20;;;;;;4971068;28;20030;-75
2022/05/07 04:15:56;;;;;;;0.10;0.10;;;19.80;75.80;;;;;;4972022;28;20030;-74
2022/05/07 04:18:23;;;;;;;0.15;0.10;;;19.70;78.60;;;;;;4967095;28;20038;-73
2022/05/07 04:20:50;;;;;;;0.15;0.00;;;19.40;76.00;;;;;;4971332;28;20039;-73
2022/05/07 04:23:18;;;;;;;0.28;0.10;;;19.30;76.60;;;;;;4969682;28;20046;-74
2022/05/07 04:25:45;;;;;;;0.60;0.08;;;19.30;75.80;;;;;;4971959;28;20565;-74
2022/05/07 04:28:13;;;;;;;0.20;0.03;;;19.40;77.20;;;;;;4967732;28;20034;-74
2022/05/07 04:30:40;;;;;;;0.20;0.08;;;19.40;77.20;;;;;;4970005;28;20039;-75
2022/05/07 04:33:07;;;;;;;1.00;0.05;;;19.40;75.70;;;;;;4969295;28;20077;-75
2022/05/07 04:35:35;;;;;;;1.55;0.10;;;19.50;78.10;;;;;;4970934;28;20030;-75
2022/05/07 04:38:02;;;;;;;0.65;0.03;;;19.40;75.40;;;;;;4969417;28;20488;-75
2022/05/07 04:40:29;;;;;;;0.15;0.00;;;19.30;74.70;;;;;;4970314;28;20038;-73
2022/05/07 04:42:57;;;;;;;0.30;0.10;;;19.20;75.50;;;;;;4961760;28;20401;-73
2022/05/07 04:45:25;;;;;;;0.22;0.13;;;19.10;76.80;;;;;;4965708;28;20074;-74
2022/05/07 04:47:53;;;;;;;2.00;0.10;;;19.10;76.40;;;;;;4970087;28;20031;-75
2022/05/07 04:50:20;;;;;;;0.20;0.20;;;19.10;77.30;;;;;;4970296;28;20034;-74
2022/05/07 04:52:48;;;;;;;0.00;0.00;;;19.10;77.20;;;;;;4969280;28;20073;-73
2022/05/07 04:55:15;;;;;;;0.00;0.00;;;19.10;78.00;;;;;;4970110;28;20058;-73
2022/05/07 04:57:42;;;;;;;1.75;0.45;;;19.10;76.90;;;;;;4972530;28;20042;-75
2022/05/07 05:00:10;;;;;;;0.10;0.00;;;19.10;77.80;;;;;;4972175;28;20054;-74
2022/05/07 05:02:38;;;;;;;0.32;0.00;;;19.10;78.40;;;;;;4988894;28;20078;-75
2022/05/07 05:05:05;;;;;;;0.20;0.08;;;19.10;77.20;;;;;;4992632;28;20460;-74
2022/05/07 05:07:33;;;;;;;0.90;0.10;;;19.10;76.30;;;;;;4992997;28;20100;-74
2022/05/07 05:10:00;;;;;;;0.20;0.00;;;19.10;75.60;;;;;;4992826;28;20443;-73
2022/05/07 05:12:28;;;;;;;1.17;0.10;;;19.00;75.60;;;;;;4990074;28;20038;-74
2022/05/07 05:15:08;;;;;;;0.00;0.00;;;19.00;75.60;;;;;;4990021;28;20544;-73
2022/05/07 05:17:37;;;;;;;0.00;0.00;;;19.00;76.50;;;;;;4992943;28;20134;-74
2022/05/07 05:20:05;;;;;;;0.70;0.20;;;19.00;76.60;;;;;;4993261;28;20042;-75
2022/05/07 05:22:33;;;;;;;0.95;0.10;;;19.10;76.40;;;;;;4991751;28;20114;-73
2022/05/07 05:25:03;;;;;;;0.08;0.08;;;19.10;77.30;;;;;;4993431;28;20137;-73
2022/05/07 05:27:30;;;;;;;1.33;0.15;;;19.10;77.90;;;;;;4990627;28;20575;-74
2022/05/07 05:29:58;;;;;;;0.98;0.10;;;19.10;76.90;;;;;;4992877;28;20073;-75
2022/05/07 05:32:25;;;;;;;0.47;0.13;;;19.20;77.60;;;;;;4985496;28;20033;-73
2022/05/07 05:34:52;;;;;;;0.10;0.08;;;19.30;75.70;;;;;;4994279;28;20053;-73
2022/05/07 05:37:20;;;;;;;3.47;0.28;;;19.30;76.30;;;;;;4994434;28;20105;-73
2022/05/07 05:39:48;;;;;;;0.20;0.00;;;19.40;75.10;;;;;;4994045;28;20448;-73
2022/05/07 05:42:15;;;;;;;0.77;0.00;;;19.40;75.20;;;;;;4981121;28;20027;-70
2022/05/07 05:44:43;;;;;;;0.52;0.00;;;19.40;76.50;;;;;;4980868;28;20097;-70
2022/05/07 05:47:11;;;;;;;0.00;0.00;;;19.50;75.90;;;;;;4991281;28;20053;-69
2022/05/07 05:49:38;;;;;;;0.00;0.00;;;19.50;76.10;;;;;;4975209;28;20400;-72
2022/05/07 05:52:07;;;;;;;1.38;0.35;;;19.50;75.40;;;;;;4989847;28;20089;-71
2022/05/07 05:54:35;;;;;;;0.00;0.00;;;19.50;75.90;;;;;;4992837;28;20093;-70
2022/05/07 05:57:03;;;;;;;0.45;0.20;;;19.60;75.40;;;;;;4977565;28;20388;-70
2022/05/07 05:59:30;;;;;;;0.10;0.10;;;19.60;75.40;;;;;;4992320;28;20069;-70
2022/05/07 06:01:58;;;;;;;0.10;0.03;;;19.60;76.90;;;;;;4969127;28;20477;-70
2022/05/07 06:04:25;;;;;;;0.10;0.10;;;19.60;75.70;;;;;;4972285;28;20031;-69
2022/05/07 06:06:52;;;;;;;1.13;0.05;;;19.50;74.70;;;;;;4971953;28;20477;-69
2022/05/07 06:09:21;;;;;;;0.60;0.03;;;19.40;74.20;;;;;;4973533;28;20429;-71
2022/05/07 06:11:49;;;;;;;0.00;0.00;;;19.20;74.00;;;;;;4966486;28;20070;-75
2022/05/07 06:14:16;;;;;;;0.13;0.00;;;19.10;75.50;;;;;;4973991;28;20490;-71
2022/05/07 06:16:43;;;;;;;2.45;0.10;;;19.00;75.60;;;;;;4971710;28;20031;-72
2022/05/07 06:19:11;;;;;;;0.30;0.10;;;18.90;76.10;;;;;;4972439;28;20026;-73
2022/05/07 06:21:38;;;;;;;0.10;0.10;;;18.90;78.80;;;;;;4970903;28;20078;-72
2022/05/07 06:29:36;;;;;;;0.47;0.10;;;18.40;77.50;;;;;;4972681;28;20041;-71
2022/05/07 06:32:04;;;;;;;2.00;0.55;;;18.20;78.40;;;;;;4963947;28;20284;-71
2022/05/07 06:34:31;;;;;;;0.55;0.10;;;18.10;78.20;;;;;;4963369;28;20062;-72
2022/05/07 06:36:58;;;;;;;0.10;0.10;;;18.00;78.60;;;;;;4960483;28;20054;-72
2022/05/07 06:39:26;;;;;;;1.95;0.00;;;17.80;78.50;;;;;;4973337;28;20188;-72
2022/05/07 06:41:53;;;;;;;0.00;0.00;;;17.70;79.00;;;;;;4968475;28;20030;-72
2022/05/07 06:44:21;;;;;;;0.38;0.17;;;17.60;78.20;;;;;;4971763;28;20102;-73
2022/05/07 06:46:49;;;;;;;0.38;0.20;;;17.40;78.90;;;;;;4961101;28;20046;-73
2022/05/07 06:49:18;;;;;;;0.13;0.00;;;17.30;79.80;;;;;;4969018;28;20019;-72
2022/05/07 06:51:45;;;;;;;0.00;0.00;;;17.10;78.30;;;;;;4966944;28;20031;-73
2022/05/07 06:54:13;;;;;;;0.45;0.10;;;17.00;78.60;;;;;;4964275;28;20081;-74
2022/05/07 06:56:40;;;;;;;0.17;0.10;;;16.90;78.20;;;;;;4963630;28;20125;-75
2022/05/07 06:59:11;;;;;;;0.20;0.10;;;16.80;79.80;;;;;;4968998;28;20503;-74
2022/05/07 07:01:39;;;;;;;0.15;0.10;;;16.70;80.80;;;;;;4964114;28;20046;-75
2022/05/07 07:04:06;;;;;;;0.25;0.10;;;16.60;80.40;;;;;;4971211;28;20035;-74
2022/05/07 07:06:34;;;;;;;0.20;0.05;;;16.50;80.90;;;;;;4970624;28;20058;-74
2022/05/07 07:09:01;;;;;;;2.33;0.00;;;16.30;81.80;;;;;;4969827;28;20032;-74
2022/05/07 07:11:28;;;;;;;0.65;0.13;;;16.20;82.50;;;;;;4971085;28;20039;-74
2022/05/07 07:13:56;;;;;;;0.70;0.20;;;16.00;82.80;;;;;;4971499;28;20070;-72
2022/05/07 07:16:24;;;;;;;2.83;0.20;;;16.00;84.30;;;;;;4970771;28;20036;-74
2022/05/07 07:18:51;;;;;;;0.57;0.30;;;15.90;84.00;;;;;;4970621;28;20098;-72
2022/05/07 07:21:19;;;;;;;1.45;0.30;;;15.80;83.60;;;;;;4967285;28;20026;-73
2022/05/07 07:23:49;;;;;;;0.43;0.20;;;15.70;85.80;;;;;;4970341;28;20030;-73
2022/05/07 07:26:17;;;;;;;0.63;0.20;;;15.60;82.70;;;;;;4970685;28;20031;-74
2022/05/07 07:28:44;;;;;;;1.88;0.40;;;15.60;83.60;;;;;;4969962;28;20090;-73
2022/05/07 07:31:11;;;;;;;1.65;0.52;;;15.50;84.10;;;;;;4970665;28;20041;-75
2022/05/07 07:33:39;;;;;;;0.82;0.50;;;15.40;84.10;;;;;;4971683;28;20103;-73
2022/05/07 07:36:08;;;;;;;1.15;0.65;;;15.30;84.30;;;;;;4970646;28;20492;-74
2022/05/07 07:38:37;;;;;;;2.55;0.60;;;15.30;85.00;;;;;;4970188;28;20045;-75
2022/05/07 07:41:05;;;;;;;0.93;0.30;;;15.20;84.20;;;;;;4970128;28;20030;-75
2022/05/07 07:43:33;;;;;;;1.58;0.25;;;15.20;83.90;;;;;;4971637;28;20026;-75
2022/05/07 07:48:46;;;;;;;0.98;0.20;;;15.10;83.80;;;;;;4960947;28;20508;-76
2022/05/07 07:51:13;;;;;;;0.30;0.30;;;15.00;84.60;;;;;;4970563;28;20117;-75
2022/05/07 07:53:42;;;;;;;0.63;0.63;;;14.90;84.40;;;;;;4971807;28;20034;-75
2022/05/07 07:56:09;;;;;;;1.85;0.82;;;14.90;85.40;;;;;;4968531;28;20030;-75
2022/05/07 07:58:36;;;;;;;3.38;1.63;;;14.80;85.50;;;;;;4970109;28;20464;-75
2022/05/07 08:01:04;;;;;;;4.55;2.65;;;14.80;85.50;;;;;;4963475;28;20043;-74
2022/05/07 08:03:31;;;;;;;5.05;2.30;;;14.70;86.20;;;;;;4970820;28;20117;-75
2022/05/07 08:05:59;;;;;;;4.63;1.83;;;14.60;86.70;;;;;;4971113;28;20031;-74
2022/05/07 08:13:57;;;;;;;2.88;1.50;;;14.20;87.60;;;;;;4965503;28;20465;-76
2022/05/07 08:16:26;;;;;;;1.85;1.20;;;14.10;88.80;;;;;;4970042;28;20086;-72
2022/05/07 08:18:54;;;;;;;2.20;1.30;;;14.00;87.70;;;;;;4970771;28;20381;-71
2022/05/07 08:21:22;;;;;;;3.47;2.05;;;14.00;88.80;;;;;;4968479;28;20157;-72
2022/05/07 08:23:49;;;;;;;3.05;2.05;;;13.90;88.50;;;;;;4968718;28;20027;-73
2022/05/07 08:26:16;;;;;;;3.20;1.88;;;13.80;88.50;;;;;;4965957;28;20053;-73
2022/05/07 08:28:44;;;;;;;3.95;2.00;;;13.70;88.70;;;;;;4970516;28;20381;-74
2022/05/07 08:31:13;;;;;;;5.97;1.85;;;13.60;89.80;;;;;;4967311;28;20503;-74
2022/05/07 08:33:44;;;;;;;3.20;2.40;;;13.60;90.00;;;;;;4974527;28;20394;-74
2022/05/07 08:36:14;;;;;;;3.55;2.40;;;13.50;90.00;;;;;;4970015;28;20041;-74
2022/05/07 08:38:42;;;;;;;3.53;1.92;;;13.50;90.10;;;;;;4971507;28;20034;-76
2022/05/07 08:41:13;;;;;;;3.85;2.28;;;13.40;90.30;;;;;;4970499;28;20026;-75
2022/05/07 08:43:43;;;;;;;4.25;3.10;;;13.40;90.70;;;;;;4959457;28;20109;-74
2022/05/07 08:46:16;;;;;;;4.95;2.53;;;13.30;90.30;;;;;;4972932;28;20042;-74
2022/05/07 08:48:47;;;;;;;8.35;3.33;;;13.30;90.50;;;;;;4980378;28;20022;-73
2022/05/07 08:51:17;;;;;;;3.63;2.83;;;13.20;90.80;;;;;;4984948;28;20137;-74
2022/05/07 08:53:53;;;;;;;8.05;3.22;;;13.10;91.20;;;;;;4977802;28;20133;-74
2022/05/07 08:56:22;;;;;;;6.60;3.10;;;13.00;91.70;;;;;;4968571;28;20027;-73
2022/05/07 08:58:54;;;;;;;4.88;3.33;;;12.90;91.30;;;;;;4974265;28;20113;-76
2022/05/07 09:01:23;;;;;;;4.50;2.83;;;12.90;91.30;;;;;;4965461;28;20126;-74
2022/05/07 09:03:51;;;;;;;3.88;2.55;;;12.90;92.90;;;;;;4972651;28;20781;-76
2022/05/07 09:06:19;;;;;;;5.65;2.67;;;12.80;92.40;;;;;;4950572;28;20043;-74
2022/05/07 09:08:48;;;;;;;3.65;2.70;;;12.70;93.30;;;;;;4973819;28;20033;-75
2022/05/07 09:11:19;;;;;;;6.40;2.55;;;12.50;93.40;;;;;;4967411;28;20027;-73
2022/05/07 09:13:47;;;;;;;4.70;2.65;;;12.40;94.10;;;;;;4972796;28;20069;-75
2022/05/07 09:16:15;;;;;;;3.55;2.53;;;12.40;94.50;;;;;;4969932;28;20117;-74
2022/05/07 09:18:48;;;;;;;5.18;3.85;;;12.30;95.50;;;;;;4971326;28;20109;-74
2022/05/07 09:21:26;;;;;;;3.95;3.53;;;12.20;95.30;;;;;;4972800;28;20037;-74
2022/05/07 09:23:59;;;;;;;5.78;3.80;;;12.10;95.70;;;;;;4975028;28;20029;-75
2022/05/07 09:26:39;;;;;;;5.80;4.30;;;12.00;96.10;;;;;;4969981;28;20041;-75
2022/05/07 09:29:11;;;;;;;6.78;2.70;;;11.90;94.50;;;;;;4955352;29;20112;-75
2022/05/07 09:31:44;;;;;;;2.30;1.50;;;12.00;95.00;;;;;;4966853;28;20030;-77
2022/05/07 09:37:12;;;;;;;4.25;1.60;;;12.10;93.60;;;;;;4976002;28;20034;-76
2022/05/07 09:39:45;;;;;;;2.38;1.67;;;12.20;93.40;;;;;;4970758;28;20031;-75
2022/05/07 09:42:13;;;;;;;1.90;1.10;;;12.30;93.70;;;;;;4971207;28;20713;-76
2022/05/07 09:44:42;;;;;;;4.32;1.38;;;12.40;92.80;;;;;;4970514;28;20508;-76
2022/05/07 09:47:12;;;;;;;1.90;1.05;;;12.50;92.80;;;;;;4950929;28;20509;-75
2022/05/07 09:52:33;;;;;;;1.98;1.20;;;12.60;92.60;;;;;;4971823;28;20042;-75
2022/05/07 09:57:46;;;;;;;2.85;1.80;;;12.50;94.30;;;;;;4972131;28;20049;-74
2022/05/07 10:00:19;;;;;;;2.92;1.85;;;12.40;94.50;;;;;;4971063;28;20592;-76
2022/05/07 10:02:58;;;;;;;3.05;2.08;;;12.30;94.10;;;;;;4965516;28;20598;-76
2022/05/07 10:05:34;;;;;;;4.68;2.50;;;12.30;94.70;;;;;;4973735;28;20043;-76
2022/05/07 10:08:17;;;;;;;6.63;2.65;;;12.20;94.00;;;;;;4971635;28;20038;-75
2022/05/07 10:10:47;;;;;;;4.78;3.30;;;12.20;94.70;;;;;;4972905;28;20491;-76
2022/05/07 10:13:18;;;;;;;3.25;2.00;;;12.10;94.20;;;;;;4969714;28;20481;-76
2022/05/07 10:15:46;;;;;;;4.32;1.90;;;12.00;94.80;;;;;;4971056;28;20019;-76
2022/05/07 10:18:17;;;;;;;2.35;1.77;;;11.90;94.70;;;;;;4971116;28;20118;-77
2022/05/07 10:20:49;;;;;;;1.73;1.30;;;11.90;94.40;;;;;;4973576;28;20042;-76
2022/05/07 10:23:29;;;;;;;9.55;4.15;;;11.90;94.10;;;;;;4969808;28;20022;-66
2022/05/07 10:25:58;;;;;;;3.08;2.35;;;11.90;94.10;;;;;;4970205;28;20551;-76
2022/05/07 10:28:39;;;;;;;5.15;3.05;;;11.90;94.80;;;;;;4970584;28;20451;-76
2022/05/07 10:31:19;;;;;;;3.72;2.95;;;11.80;95.20;;;;;;4969255;28;20033;-73
2022/05/07 10:33:47;;;;;;;6.13;2.60;;;11.70;95.40;;;;;;4971316;28;20105;-73
2022/05/07 10:36:16;;;;;;;7.72;4.03;;;11.80;94.30;;;;;;4970470;28;20062;-73
2022/05/07 10:38:46;;;;;;;3.97;2.78;;;11.90;94.90;;;;;;4970266;28;20119;-73
2022/05/07 10:41:14;;;;;;;5.93;3.55;;;11.80;94.90;;;;;;4971465;28;20030;-74
2022/05/07 10:43:46;;;;;;;2.95;1.50;;;11.70;95.80;;;;;;4969566;28;20077;-73
2022/05/07 10:46:22;;;;;;;3.80;1.98;;;11.60;95.70;;;;;;4968575;28;20045;-73
2022/05/07 10:49:01;;;;;;;2.72;1.23;;;11.50;95.10;;;;;;4968270;28;20031;-74
2022/05/07 10:51:31;;;;;;;2.63;1.60;;;11.50;95.20;;;;;;4964845;28;20047;-74
2022/05/07 10:54:03;;;;;;;9.10;2.15;;;11.60;95.30;;;;;;4970563;28;20027;-74
2022/05/07 10:56:33;;;;;;;3.60;1.70;;;11.60;96.10;;;;;;4969954;28;20031;-74
2022/05/07 10:59:01;;;;;;;2.25;1.60;;;11.50;96.80;;;;;;4971723;28;20078;-74
2022/05/07 11:01:31;;;;;;;3.92;1.73;;;11.40;96.40;;;;;;4966555;28;20058;-73
2022/05/07 11:04:05;;;;;;;3.92;2.30;;;11.40;96.80;;;;;;4970452;28;20027;-73
2022/05/07 11:06:43;;;;;;;2.55;1.70;;;11.30;96.80;;;;;;4971401;28;20049;-74
2022/05/07 11:09:22;;;;;;;3.42;2.28;;;11.10;96.90;;;;;;4972422;28;20085;-73
2022/05/07 11:11:54;;;;;;;4.90;2.40;;;11.10;96.60;;;;;;4968348;28;20045;-74
2022/05/07 11:14:22;;;;;;;4.72;2.00;;;11.00;96.60;;;;;;4971867;28;20026;-74
2022/05/07 11:16:55;;;;;;;4.35;2.22;;;11.00;97.30;;;;;;4969467;28;20113;-75
2022/05/07 11:19:33;;;;;;;3.58;2.00;;;11.00;97.00;;;;;;4967469;28;20041;-73
2022/05/07 11:22:03;;;;;;;4.05;2.10;;;10.90;97.80;;;;;;4967426;28;20447;-75
2022/05/07 11:24:32;;;;;;;2.95;1.88;;;10.90;97.90;;;;;;4969967;28;20463;-74
2022/05/07 11:27:02;;;;;;;1.27;1.00;;;10.90;98.10;;;;;;4967870;28;20034;-74
2022/05/07 11:29:30;;;;;;;4.05;1.30;;;11.00;97.10;;;;;;4970578;28;20035;-74
2022/05/07 11:32:04;;;;;;;1.95;1.20;;;11.10;97.20;;;;;;4970788;28;20081;-74
2022/05/07 11:34:34;;;;;;;1.77;1.33;;;11.20;96.80;;;;;;4970210;28;20026;-74
2022/05/07 11:37:21;;;;;;;2.33;1.67;;;11.30;96.90;;;;;;4971163;28;20027;-75
2022/05/07 11:40:04;;;;;;;4.03;1.88;;;11.30;97.50;;;;;;4962226;28;20096;-75
2022/05/07 11:42:46;;;;;;;1.83;1.30;;;11.30;97.20;;;;;;4969941;28;20504;-74
2022/05/07 11:45:29;;;;;;;2.65;1.85;;;11.20;97.10;;;;;;4970568;28;20031;-74
2022/05/07 11:48:23;;;;;;;3.22;2.38;;;11.10;97.60;;;;;;4967963;28;20045;-77
2022/05/07 11:51:01;;;;;;;2.33;1.10;;;11.00;97.40;;;;;;4969286;28;20030;-74
2022/05/07 11:53:31;;;;;;;5.32;1.40;;;10.90;97.70;;;;;;4964685;28;20045;-75
2022/05/07 11:56:09;;;;;;;1.75;1.17;;;10.80;98.40;;;;;;4969921;28;20035;-76
2022/05/07 11:58:44;;;;;;;2.38;1.35;;;10.70;98.50;;;;;;4964644;28;20074;-74
2022/05/07 12:01:28;;;;;;;1.60;1.05;;;10.60;98.70;;;;;;4980617;28;20112;-74
2022/05/07 12:03:56;;;;;;;2.05;1.25;;;10.50;99.40;;;;;;4994032;28;20034;-74
2022/05/07 12:06:33;;;;;;;3.95;2.38;;;10.50;99.10;;;;;;4991261;28;20042;-76
2022/05/07 12:09:11;;;;;;;10.65;5.55;;;10.50;99.10;;;;;;4990729;28;20146;-74
2022/05/07 12:11:42;;;;;;;3.00;2.20;;;10.50;99.20;;;;;;4983246;28;20761;-74
2022/05/07 12:14:10;;;;;;;6.25;1.95;;;10.50;98.80;;;;;;4990828;28;20141;-74
2022/05/07 12:19:34;;;;;;;2.45;1.58;;;10.50;99.50;;;;;;4989441;28;20037;-74
2022/05/07 12:30:18;;;;;;;4.63;2.42;;;10.40;99.70;;;;;;4990105;28;20037;-75
2022/05/07 12:32:48;;;;;;;2.78;2.20;;;10.40;99.60;;;;;;4988953;28;20527;-74
2022/05/07 12:35:16;;;;;;;6.35;4.15;;;10.30;99.90;;;;;;4989579;28;20038;-73
2022/05/07 12:37:43;;;;;;;6.85;4.13;;;10.30;99.90;;;;;;4989145;28;20460;-76
2022/05/07 12:40:12;;;;;;;8.65;4.97;;;10.20;99.90;;;;;;4977287;28;20030;-75
2022/05/07 12:42:40;;;;;;;6.55;4.75;;;10.20;99.90;;;;;;4990024;28;20040;-73
2022/05/07 12:45:08;;;;;;;6.50;4.90;;;10.10;99.90;;;;;;4989779;28;20018;-73
2022/05/07 12:47:36;;;;;;;5.78;4.00;;;10.10;99.90;;;;;;4991045;28;20393;-75
2022/05/07 12:50:03;;;;;;;12.38;7.65;;;10.10;99.90;;;;;;4965823;28;20034;-74
2022/05/07 12:52:31;;;;;;;9.38;6.63;;;10.00;99.90;;;;;;4969198;28;20382;-75
2022/05/07 12:54:58;;;;;;;5.35;3.15;;;9.90;99.90;;;;;;4988719;28;20460;-74
2022/05/07 12:57:25;;;;;;;11.07;6.70;;;9.90;99.90;;;;;;4985910;28;20030;-74
2022/05/07 12:59:53;;;;;;;13.20;6.57;;;9.90;99.90;;;;;;4986851;28;20121;-74
2022/05/07 13:02:20;;;;;;;10.18;6.15;;;9.90;99.90;;;;;;4956828;28;20047;-73
2022/05/07 13:04:48;;;;;;;8.40;5.50;;;9.80;99.90;;;;;;4959259;28;20389;-74
2022/05/07 13:07:15;;;;;;;10.20;5.25;;;9.80;99.90;;;;;;4971194;28;20045;-74
2022/05/07 13:09:42;;;;;;;8.40;5.70;;;9.80;99.90;;;;;;4968485;28;20027;-74
2022/05/07 13:12:13;;;;;;;11.25;5.82;;;9.70;99.90;;;;;;4955745;28;20027;-75
2022/05/07 13:14:41;;;;;;;6.40;5.43;;;9.70;99.90;;;;;;4968819;28;20066;-73
2022/05/07 13:17:08;;;;;;;6.07;3.78;;;9.70;99.90;;;;;;4965036;28;20105;-74
2022/05/07 13:19:36;;;;;;;5.97;4.20;;;9.60;99.90;;;;;;4965569;28;20030;-74
2022/05/07 13:22:04;;;;;;;9.15;4.22;;;9.60;99.90;;;;;;4968023;28;20031;-74
2022/05/07 13:24:31;;;;;;;6.65;3.25;;;9.60;99.90;;;;;;4970834;28;20035;-74
2022/05/07 13:26:59;;;;;;;7.72;4.68;;;9.50;99.90;;;;;;4964700;28;20047;-73
2022/05/07 13:29:32;;;;;;;7.18;4.13;;;9.50;99.90;;;;;;4964645;28;20027;-74
2022/05/07 13:31:59;;;;;;;6.43;5.00;;;9.50;99.90;;;;;;4965829;28;20038;-74
2022/05/07 13:34:27;;;;;;;7.55;5.28;;;9.50;99.90;;;;;;4970932;28;20050;-74
2022/05/07 13:36:55;;;;;;;8.82;5.35;;;9.50;99.90;;;;;;4960341;28;20397;-74
2022/05/07 13:39:22;;;;;;;9.05;4.82;;;9.40;99.90;;;;;;4971719;28;20027;-74
2022/05/07 13:41:49;;;;;;;7.68;4.50;;;9.40;99.90;;;;;;4973976;28;20026;-74